Time;durP1;ratioP1;P1;durP2;ratioP2;P2;SDS_P1;SDS_P2;PMS_P1;PMS_P2;Temp;Humidity;BMP_temperature;BMP_pressure;BME280_temperature;BME280_humidity;BME280_pressure;Samples;Min_cycle;Max_cycle;Signal;HPM_P1;HPM_P2
2023/06/25 00:01:49;;;;;;;7.60;5.80;;;;;;;21.55;100.00;99958.29;105002;1258;67784;-62
2023/06/25 00:04:17;;;;;;;6.50;5.70;;;;;;;21.50;100.00;99965.59;105240;1254;71553;-63
2023/06/25 00:06:44;;;;;;;7.20;6.00;;;;;;;21.45;100.00;99974.91;105228;1254;61979;-64
2023/06/25 00:09:10;;;;;;;7.90;6.30;;;;;;;21.42;100.00;99977.04;105076;1254;60382;-63
2023/06/25 00:11:37;;;;;;;9.50;7.10;;;;;;;21.41;100.00;99977.09;105345;1254;72595;-64
2023/06/25 00:14:04;;;;;;;6.10;5.30;;;;;;;21.39;100.00;99970.12;105307;1254;67171;-63
2023/06/25 00:16:33;;;;;;;6.80;5.50;;;;;;;21.37;100.00;99969.55;105230;1259;71459;-64
2023/06/25 00:19:00;;;;;;;8.00;6.20;;;;;;;21.35;100.00;99967.04;105275;1254;62205;-64
2023/06/25 00:21:27;;;;;;;7.00;5.70;;;;;;;21.33;100.00;99968.52;105329;1255;60520;-66
2023/06/25 00:23:55;;;;;;;7.40;5.70;;;;;;;21.30;100.00;99970.28;105249;1254;73122;-63
2023/06/25 00:26:22;;;;;;;7.30;6.20;;;;;;;21.26;100.00;99968.20;105259;1254;65612;-64
2023/06/25 00:28:50;;;;;;;6.60;5.80;;;;;;;21.21;100.00;99964.36;105294;1254;70980;-66
2023/06/25 00:31:17;;;;;;;9.90;6.40;;;;;;;21.18;100.00;99968.13;105475;1259;62160;-66
2023/06/25 00:33:49;;;;;;;7.00;5.60;;;;;;;21.13;100.00;99966.00;105051;1260;60450;-63
2023/06/25 00:36:16;;;;;;;7.30;6.10;;;;;;;21.10;100.00;99961.52;105238;1254;74347;-64
2023/06/25 00:38:44;;;;;;;8.90;7.00;;;;;;;21.05;100.00;99965.16;105587;1254;67219;-64
2023/06/25 00:41:11;;;;;;;7.00;5.40;;;;;;;21.01;100.00;99967.69;105232;1254;73058;-65
2023/06/25 00:43:41;;;;;;;7.70;6.10;;;;;;;20.98;100.00;99971.48;105035;1259;62410;-63
2023/06/25 00:46:13;;;;;;;10.00;6.30;;;;;;;20.93;100.00;99970.73;105277;1254;60377;-64
2023/06/25 00:48:45;;;;;;;6.90;6.20;;;;;;;20.87;100.00;99973.24;105104;1255;73864;-63
2023/06/25 00:51:16;;;;;;;9.40;6.50;;;;;;;20.83;100.00;99965.48;105225;1254;66410;-64
2023/06/25 00:53:43;;;;;;;7.80;6.70;;;;;;;20.79;100.00;99968.54;105077;1257;71432;-63
2023/06/25 00:56:11;;;;;;;7.60;6.60;;;;;;;20.76;100.00;99968.47;105252;1258;60809;-63
2023/06/25 00:58:39;;;;;;;8.70;6.70;;;;;;;20.72;100.00;99968.55;105024;1257;59360;-65
2023/06/25 01:01:11;;;;;;;7.20;6.50;;;;;;;20.69;100.00;99976.80;105290;1254;72642;-65
2023/06/25 01:03:40;;;;;;;8.00;6.80;;;;;;;20.66;100.00;99981.09;105357;1254;67028;-63
2023/06/25 01:06:15;;;;;;;7.20;6.00;;;;;;;20.64;100.00;99987.73;105307;1259;71249;-63
2023/06/25 01:08:49;;;;;;;8.00;6.40;;;;;;;20.60;100.00;99991.85;104981;1254;61421;-66
2023/06/25 01:11:17;;;;;;;8.00;7.20;;;;;;;20.57;100.00;99994.16;105257;1254;60601;-64
2023/06/25 01:13:47;;;;;;;9.00;6.60;;;;;;;20.58;100.00;99996.66;105281;1259;74014;-63
2023/06/25 01:16:14;;;;;;;11.10;6.70;;;;;;;20.57;100.00;99992.25;105291;1259;65877;-63
2023/06/25 01:18:41;;;;;;;9.20;7.10;;;;;;;20.57;100.00;99988.70;105470;1259;71633;-65
2023/06/25 01:21:26;;;;;;;10.00;7.40;;;;;;;20.58;100.00;99995.55;105176;1254;61023;-63
2023/06/25 01:23:53;;;;;;;9.60;6.50;;;;;;;20.60;100.00;99995.98;105131;1254;60540;-64
2023/06/25 01:26:20;;;;;;;8.50;7.00;;;;;;;20.59;100.00;100002.27;105068;1254;72634;-63
2023/06/25 01:28:47;;;;;;;8.70;6.60;;;;;;;20.58;100.00;100004.08;105304;1254;67217;-64
2023/06/25 01:31:15;;;;;;;8.10;7.30;;;;;;;20.55;100.00;100002.52;105242;1259;72178;-64
2023/06/25 01:33:43;;;;;;;9.10;7.40;;;;;;;20.51;100.00;100004.81;105158;1254;62309;-64
2023/06/25 01:36:10;;;;;;;9.70;7.90;;;;;;;20.51;100.00;100003.45;105315;1258;60347;-65
2023/06/25 01:38:37;;;;;;;9.10;7.00;;;;;;;20.52;100.00;100000.52;105603;1254;74341;-66
2023/06/25 01:41:05;;;;;;;9.90;7.80;;;;;;;20.53;100.00;100000.92;105514;1258;67868;-64
2023/06/25 01:43:32;;;;;;;9.20;8.00;;;;;;;20.53;100.00;99998.70;105473;1259;72651;-64
2023/06/25 01:45:59;;;;;;;9.80;7.40;;;;;;;20.54;100.00;99996.21;105278;1254;62095;-64
2023/06/25 01:48:26;;;;;;;8.30;7.40;;;;;;;20.53;100.00;99997.64;105419;1254;60425;-64
2023/06/25 01:50:53;;;;;;;7.80;7.00;;;;;;;20.54;100.00;99996.27;105417;1254;73934;-65
2023/06/25 01:53:20;;;;;;;8.10;7.30;;;;;;;20.53;100.00;99996.98;105239;1259;65805;-64
2023/06/25 01:55:47;;;;;;;7.50;6.70;;;;;;;20.52;100.00;100001.38;105136;1259;72749;-64
2023/06/25 01:58:14;;;;;;;8.70;7.00;;;;;;;20.50;100.00;100000.27;105326;1254;61927;-63
2023/06/25 02:00:43;;;;;;;7.50;6.70;;;;;;;20.47;100.00;100004.02;105778;1254;63266;-65
2023/06/25 02:03:10;;;;;;;9.90;7.30;;;;;;;20.45;100.00;99996.90;105329;1258;75329;-64
2023/06/25 02:05:38;;;;;;;9.90;7.40;;;;;;;20.45;100.00;99993.52;105297;1254;66501;-64
2023/06/25 02:08:05;;;;;;;9.30;7.90;;;;;;;20.45;100.00;99994.89;105318;1254;72878;-64
2023/06/25 02:10:32;;;;;;;9.50;7.10;;;;;;;20.46;100.00;99995.45;105292;1254;60569;-65
2023/06/25 02:13:00;;;;;;;8.20;7.30;;;;;;;20.48;100.00;100001.91;105320;1259;60721;-66
2023/06/25 02:15:27;;;;;;;10.00;7.90;;;;;;;20.49;100.00;99995.68;105307;1254;72846;-64
2023/06/25 02:17:54;;;;;;;9.30;7.30;;;;;;;20.50;100.00;99999.09;105109;1254;67189;-64
2023/06/25 02:20:21;;;;;;;9.80;7.70;;;;;;;20.51;100.00;100000.58;105329;1259;71204;-64
2023/06/25 02:22:50;;;;;;;9.10;7.70;;;;;;;20.55;100.00;100001.02;105690;1258;60760;-65
2023/06/25 02:25:17;;;;;;;9.50;7.80;;;;;;;20.60;100.00;100003.39;104787;1254;60601;-66
2023/06/25 02:27:44;;;;;;;10.20;7.80;;;;;;;20.69;100.00;100001.33;105199;1260;73811;-65
2023/06/25 02:30:11;;;;;;;8.40;7.10;;;;;;;20.82;100.00;99997.64;105300;1254;66226;-64
2023/06/25 02:32:39;;;;;;;9.00;7.70;;;;;;;20.92;100.00;99998.27;105340;1254;72729;-64
2023/06/25 02:35:06;;;;;;;8.80;7.30;;;;;;;21.01;100.00;99996.73;105613;1259;60795;-66
2023/06/25 02:37:33;;;;;;;10.00;7.50;;;;;;;21.03;100.00;99992.92;105297;1254;60411;-64
2023/06/25 02:40:00;;;;;;;8.30;7.50;;;;;;;21.06;100.00;99987.16;105296;1259;73689;-64
2023/06/25 02:42:27;;;;;;;8.90;7.50;;;;;;;21.06;100.00;99986.63;105401;1258;67088;-64
2023/06/25 02:44:54;;;;;;;8.80;7.80;;;;;;;21.07;100.00;99989.13;105229;1257;71721;-63
2023/06/25 02:47:21;;;;;;;8.00;7.10;;;;;;;21.06;100.00;99985.05;105225;1259;62554;-64
2023/06/25 02:49:49;;;;;;;8.80;7.70;;;;;;;21.08;100.00;99976.36;105116;1256;60427;-63
2023/06/25 02:52:16;;;;;;;9.40;7.40;;;;;;;21.10;100.00;99963.27;105400;1259;73881;-63
2023/06/25 02:54:43;;;;;;;8.90;7.80;;;;;;;21.12;100.00;99958.35;105674;1254;67147;-64
2023/06/25 02:57:11;;;;;;;10.00;8.50;;;;;;;21.24;100.00;99955.52;105680;1259;72712;-64
2023/06/25 02:59:37;;;;;;;7.70;6.50;;;;;;;21.37;100.00;99954.89;104980;1254;60530;-63
2023/06/25 03:02:05;;;;;;;9.20;7.50;;;;;;;21.50;100.00;99953.96;104985;1254;60418;-64
2023/06/25 03:04:32;;;;;;;9.00;8.00;;;;;;;21.57;100.00;99951.71;105366;1254;73557;-64
2023/06/25 03:07:00;;;;;;;8.60;7.70;;;;;;;21.65;100.00;99949.27;105358;1254;67127;-64
2023/06/25 03:09:27;;;;;;;9.60;8.20;;;;;;;21.71;100.00;99951.89;105321;1260;72486;-66
2023/06/25 03:11:55;;;;;;;9.30;7.80;;;;;;;21.73;100.00;99950.66;105087;1257;62411;-64
2023/06/25 03:14:22;;;;;;;9.80;7.80;;;;;;;21.74;100.00;99946.14;105305;1258;60501;-64
2023/06/25 03:17:05;;;;;;;8.20;7.40;;;;;;;21.73;100.00;99943.55;105242;1259;73968;-64
2023/06/25 03:19:33;;;;;;;8.90;7.30;;;;;;;21.70;100.00;99938.63;104981;1259;65884;-65
2023/06/25 03:22:00;;;;;;;8.30;7.40;;;;;;;21.66;100.00;99933.15;105224;1259;71410;-64
2023/06/25 03:24:27;;;;;;;9.20;8.30;;;;;;;21.67;100.00;99930.80;105264;1259;60543;-65
2023/06/25 03:26:54;;;;;;;8.80;7.90;;;;;;;21.72;100.00;99931.88;105309;1254;60565;-64
2023/06/25 03:29:22;;;;;;;8.60;7.80;;;;;;;21.97;100.00;99932.48;105316;1259;72634;-65
2023/06/25 03:31:49;;;;;;;8.60;7.70;;;;;;;22.64;100.00;99928.02;105289;1254;67083;-64
2023/06/25 03:34:18;;;;;;;8.40;7.50;;;;;;;23.59;100.00;99932.36;105075;1257;72552;-64
2023/06/25 03:36:45;;;;;;;7.80;7.00;;;;;;;24.61;100.00;99932.30;105168;1254;61882;-64
2023/06/25 03:39:12;;;;;;;8.70;7.80;;;;;;;25.57;100.00;99924.40;105165;1259;60297;-65
2023/06/25 03:41:41;;;;;;;10.50;8.00;;;;;;;26.44;100.00;99905.58;104930;1259;74407;-64
2023/06/25 03:44:08;;;;;;;9.60;7.40;;;;;;;27.36;100.00;99889.91;105218;1259;65723;-64
2023/06/25 03:46:35;;;;;;;8.70;7.80;;;;;;;27.96;100.00;99868.11;105052;1256;71588;-64
2023/06/25 03:49:02;;;;;;;9.00;7.80;;;;;;;28.14;100.00;99852.19;105299;1254;60373;-64
2023/06/25 03:51:30;;;;;;;8.10;7.30;;;;;;;28.11;100.00;99845.48;105252;1254;60456;-66
2023/06/25 03:53:57;;;;;;;12.80;7.60;;;;;;;28.13;100.00;99840.16;104975;1254;74005;-64
2023/06/25 03:56:25;;;;;;;7.30;6.60;;;;;;;28.62;100.00;99836.21;105302;1254;67376;-65
2023/06/25 03:58:52;;;;;;;7.60;6.90;;;;;;;29.49;100.00;99827.88;105246;1254;72780;-65
2023/06/25 04:01:19;;;;;;;8.20;7.10;;;;;;;30.41;100.00;99826.14;105556;1254;60510;-66
2023/06/25 04:03:46;;;;;;;7.20;6.10;;;;;;;31.29;100.00;99829.45;105062;1254;61066;-65
2023/06/25 04:06:13;;;;;;;7.70;6.90;;;;;;;32.26;100.00;99833.55;105374;1254;72986;-65
2023/06/25 04:08:42;;;;;;;7.50;6.80;;;;;;;32.99;100.00;99835.20;105265;1254;60485;-64
2023/06/25 04:11:09;;;;;;;7.40;6.30;;;;;;;33.41;100.00;99831.64;105298;1259;62670;-65
2023/06/25 04:13:37;;;;;;;10.20;6.90;;;;;;;33.39;100.00;99825.79;105083;1254;60616;-65
2023/06/25 04:16:07;;;;;;;8.90;7.00;;;;;;;33.04;100.00;99824.30;105197;1259;60759;-64
2023/06/25 04:18:37;;;;;;;8.20;7.40;;;;;;;32.60;100.00;99822.96;105193;1254;64236;-64
2023/06/25 04:21:04;;;;;;;7.40;6.60;;;;;;;32.14;100.00;99827.83;105214;1259;65970;-65
2023/06/25 04:23:31;;;;;;;10.50;7.50;;;;;;;31.73;100.00;99825.88;104909;1254;62909;-64
2023/06/25 04:25:58;;;;;;;8.20;6.90;;;;;;;31.24;100.00;99823.50;105174;1254;60558;-65
2023/06/25 04:28:25;;;;;;;8.40;7.50;;;;;;;30.70;100.00;99820.80;105329;1254;60524;-65
2023/06/25 04:30:53;;;;;;;8.70;7.10;;;;;;;30.31;100.00;99821.71;105468;1254;72063;-64
2023/06/25 04:33:20;;;;;;;8.80;7.90;;;;;;;29.93;100.00;99821.13;105550;1254;67337;-65
2023/06/25 04:35:47;;;;;;;8.40;7.00;;;;;;;29.56;100.00;99827.39;105577;1259;71865;-64
2023/06/25 04:38:15;;;;;;;8.50;7.70;;;;;;;29.17;100.00;99831.27;105743;1254;60445;-64
2023/06/25 04:40:42;;;;;;;10.60;8.30;;;;;;;28.79;100.00;99833.95;105742;1254;60496;-63
2023/06/25 04:43:09;;;;;;;8.80;8.00;;;;;;;28.42;100.00;99832.39;105857;1255;72489;-64
2023/06/25 04:45:36;;;;;;;9.80;8.80;;;;;;;28.10;100.00;99834.71;105948;1259;67640;-64
2023/06/25 04:48:04;;;;;;;9.90;8.40;;;;;;;27.79;100.00;99832.01;105391;1259;70778;-63
2023/06/25 04:50:31;;;;;;;12.80;7.90;;;;;;;27.54;100.00;99829.14;105487;1254;60352;-63
2023/06/25 04:52:58;;;;;;;10.30;8.80;;;;;;;27.28;100.00;99831.39;105597;1254;60539;-63
2023/06/25 04:55:25;;;;;;;9.90;8.90;;;;;;;26.98;100.00;99835.73;105848;1254;74673;-65
2023/06/25 04:57:52;;;;;;;10.00;9.00;;;;;;;26.73;100.00;99843.42;105551;1259;65738;-64
2023/06/25 05:00:20;;;;;;;8.90;8.10;;;;;;;26.56;100.00;99850.94;105328;1259;72467;-63
2023/06/25 05:02:47;;;;;;;9.90;8.90;;;;;;;26.50;100.00;99851.02;105274;1254;61910;-63
2023/06/25 05:05:14;;;;;;;10.20;9.20;;;;;;;26.42;100.00;99850.61;105432;1258;60708;-63
2023/06/25 05:07:41;;;;;;;10.10;9.10;;;;;;;26.39;100.00;99854.09;105522;1254;72635;-64
2023/06/25 05:10:08;;;;;;;11.30;9.90;;;;;;;26.38;100.00;99856.71;105425;1258;65675;-63
2023/06/25 05:12:35;;;;;;;12.40;11.10;;;;;;;26.36;100.00;99860.25;105248;1257;71233;-63
2023/06/25 05:15:03;;;;;;;11.90;10.60;;;;;;;26.31;100.00;99859.06;105327;1254;60406;-63
2023/06/25 05:17:30;;;;;;;10.60;9.50;;;;;;;26.22;100.00;99858.80;105352;1259;59599;-63
2023/06/25 05:19:58;;;;;;;9.90;8.80;;;;;;;26.11;100.00;99864.52;105168;1259;74459;-63
2023/06/25 05:22:25;;;;;;;9.80;8.90;;;;;;;26.04;100.00;99861.98;105060;1254;67374;-63
2023/06/25 05:24:53;;;;;;;12.30;9.00;;;;;;;26.02;100.00;99862.54;105302;1259;72784;-63
2023/06/25 05:27:20;;;;;;;10.20;8.90;;;;;;;26.02;100.00;99860.24;105306;1259;60456;-63
2023/06/25 05:29:47;;;;;;;10.40;9.40;;;;;;;26.04;100.00;99861.23;105070;1255;60511;-64
2023/06/25 05:32:16;;;;;;;9.80;8.90;;;;;;;26.04;100.00;99862.89;105427;1254;73024;-64
2023/06/25 05:34:43;;;;;;;11.40;10.00;;;;;;;26.01;100.00;99866.24;105011;1254;67067;-63
2023/06/25 05:37:10;;;;;;;11.20;9.90;;;;;;;26.01;100.00;99869.89;105315;1260;70811;-63
2023/06/25 05:39:37;;;;;;;20.80;9.70;;;;;;;26.03;100.00;99869.60;105796;1254;62478;-64
2023/06/25 05:42:05;;;;;;;12.40;9.60;;;;;;;26.03;100.00;99866.70;105331;1260;60890;-64
2023/06/25 05:44:32;;;;;;;9.70;8.70;;;;;;;26.07;100.00;99868.55;105769;1257;72863;-65
2023/06/25 05:46:59;;;;;;;10.20;9.20;;;;;;;26.14;100.00;99872.06;105464;1259;65997;-64
2023/06/25 05:49:26;;;;;;;10.20;9.30;;;;;;;26.19;100.00;99873.03;105443;1254;72778;-63
2023/06/25 05:51:53;;;;;;;9.50;8.60;;;;;;;26.21;100.00;99871.70;105487;1259;60456;-64
2023/06/25 05:54:20;;;;;;;10.70;9.20;;;;;;;26.20;100.00;99870.97;105433;1254;60427;-62
2023/06/25 05:56:47;;;;;;;9.40;8.50;;;;;;;26.16;100.00;99873.34;105499;1259;73867;-65
2023/06/25 05:59:14;;;;;;;10.00;9.00;;;;;;;26.14;100.00;99874.67;105390;1259;67122;-63
2023/06/25 06:01:41;;;;;;;10.10;8.80;;;;;;;26.12;100.00;99874.36;109185;1254;71136;-63
2023/06/25 06:04:08;;;;;;;11.80;9.40;;;;;;;26.11;100.00;99869.70;105178;1258;60543;-64
2023/06/25 06:06:35;;;;;;;12.60;9.50;;;;;;;26.08;100.00;99874.63;105305;1254;60896;-61
2023/06/25 06:09:02;;;;;;;11.20;10.10;;;;;;;26.04;100.00;99875.48;105580;1258;73775;-65
2023/06/25 06:11:30;;;;;;;10.70;9.70;;;;;;;25.97;100.00;99876.61;105423;1258;66989;-61
2023/06/25 06:13:57;;;;;;;10.00;8.80;;;;;;;25.90;100.00;99880.86;105304;1254;72675;-63
2023/06/25 06:16:24;;;;;;;10.10;9.20;;;;;;;25.80;100.00;99885.78;105465;1254;60543;-64
2023/06/25 06:18:51;;;;;;;9.90;8.90;;;;;;;25.69;100.00;99892.40;105382;1259;60400;-63
2023/06/25 06:21:18;;;;;;;10.40;9.30;;;;;;;25.60;100.00;99898.95;105212;1258;73767;-62
2023/06/25 06:23:45;;;;;;;10.10;9.10;;;;;;;25.53;100.00;99900.09;105340;1254;66846;-62
2023/06/25 06:26:12;;;;;;;11.00;9.30;;;;;;;25.43;100.00;99898.95;105457;1258;72688;-64
2023/06/25 06:28:39;;;;;;;11.40;9.20;;;;;;;25.37;100.00;99900.61;105317;1254;61995;-64
2023/06/25 06:31:07;;;;;;;10.40;9.40;;;;;;;25.32;100.00;99901.73;105664;1257;60572;-64
2023/06/25 06:33:34;;;;;;;16.50;8.70;;;;;;;25.27;100.00;99907.89;105434;1257;73384;-63
2023/06/25 06:36:03;;;;;;;11.60;10.00;;;;;;;25.24;100.00;99912.20;105868;1258;66988;-64
2023/06/25 06:38:31;;;;;;;10.50;9.40;;;;;;;25.22;100.00;99910.09;105150;1254;71225;-64
2023/06/25 06:40:58;;;;;;;11.20;10.00;;;;;;;25.17;100.00;99916.89;105418;1254;60488;-64
2023/06/25 06:43:25;;;;;;;13.90;11.80;;;;;;;25.11;100.00;99918.30;105343;1254;60428;-66
2023/06/25 06:45:52;;;;;;;13.30;12.00;;;;;;;25.05;100.00;99920.77;105348;1257;72739;-65
2023/06/25 06:48:19;;;;;;;15.80;14.20;;;;;;;25.03;100.00;99929.79;105548;1254;67091;-66
2023/06/25 06:50:46;;;;;;;17.20;15.50;;;;;;;25.02;100.00;99935.36;105315;1259;72712;-64
2023/06/25 06:53:13;;;;;;;18.30;16.40;;;;;;;24.98;100.00;99939.02;105310;1267;60470;-65
2023/06/25 06:55:39;;;;;;;15.00;13.60;;;;;;;24.92;100.00;99939.54;105292;1254;60536;-64
2023/06/25 06:58:06;;;;;;;14.20;12.70;;;;;;;24.85;100.00;99940.05;105391;1254;72528;-64
2023/06/25 07:00:34;;;;;;;12.90;10.90;;;;;;;24.77;100.00;99946.70;105537;1258;65987;-65
2023/06/25 07:03:01;;;;;;;13.20;11.00;;;;;;;24.73;100.00;99949.52;105435;1254;71641;-64
2023/06/25 07:05:28;;;;;;;12.80;11.50;;;;;;;24.71;100.00;99952.76;105547;1259;60482;-65
2023/06/25 07:07:56;;;;;;;11.50;10.30;;;;;;;24.71;100.00;99950.88;105407;1256;60488;-64
2023/06/25 07:10:23;;;;;;;11.80;10.70;;;;;;;24.71;100.00;99947.38;105489;1258;72163;-65
2023/06/25 07:12:50;;;;;;;12.20;10.90;;;;;;;24.74;100.00;99944.06;105395;1257;67599;-63
2023/06/25 07:15:17;;;;;;;12.80;11.60;;;;;;;24.79;100.00;99947.63;105329;1259;70549;-65
2023/06/25 07:17:44;;;;;;;11.50;10.40;;;;;;;24.87;100.00;99949.29;105105;1259;62271;-63
2023/06/25 07:20:11;;;;;;;12.10;11.00;;;;;;;24.99;100.00;99955.20;105385;1257;60129;-64
2023/06/25 07:22:40;;;;;;;11.20;10.10;;;;;;;25.12;100.00;99955.58;105390;1254;74410;-64
2023/06/25 07:25:08;;;;;;;12.00;10.80;;;;;;;25.25;100.00;99950.81;105375;1254;67190;-63
2023/06/25 07:27:36;;;;;;;13.30;11.10;;;;;;;25.40;100.00;99944.41;105311;1254;73190;-64
2023/06/25 07:30:04;;;;;;;11.20;10.10;;;;;;;25.55;100.00;99939.98;105497;1259;60460;-63
2023/06/25 07:32:31;;;;;;;11.40;10.20;;;;;;;25.70;100.00;99938.27;105760;1254;60434;-64
2023/06/25 07:34:58;;;;;;;11.30;10.00;;;;;;;25.82;100.00;99932.96;105541;1259;74100;-64
2023/06/25 07:37:25;;;;;;;12.00;10.40;;;;;;;25.95;100.00;99930.02;106002;1254;67257;-64
2023/06/25 07:39:52;;;;;;;10.80;9.80;;;;;;;26.14;100.00;99925.42;105686;1254;73595;-62
2023/06/25 07:42:19;;;;;;;11.20;10.10;;;;;;;26.34;100.00;99921.25;105466;1259;60533;-62
2023/06/25 07:44:46;;;;;;;11.80;10.70;;;;;;;26.57;100.00;99919.00;105840;1259;60370;-64
2023/06/25 07:47:24;;;;;;;11.50;10.40;;;;;;;26.81;100.00;99911.54;105270;1257;72118;-63
2023/06/25 07:49:51;;;;;;;12.40;11.30;;;;;;;27.02;100.00;99908.33;105594;1257;67219;-63
2023/06/25 07:52:18;;;;;;;11.20;10.10;;;;;;;27.26;100.00;99902.95;105629;1258;72755;-63
2023/06/25 07:54:44;;;;;;;11.70;10.50;;;;;;;27.47;100.00;99899.39;105352;1258;60543;-63
2023/06/25 07:57:11;;;;;;;12.40;11.20;;;;;;;27.74;100.00;99899.35;105707;1258;60450;-63
2023/06/25 07:59:38;;;;;;;12.80;10.70;;;;;;;28.04;100.00;99903.48;105688;1254;71646;-64
2023/06/25 08:02:20;;;;;;;12.30;11.20;;;;;;;28.31;100.00;99897.61;105686;1258;67750;-64
2023/06/25 08:04:48;;;;;;;11.80;10.70;;;;;;;28.52;100.00;99897.06;105697;1258;73107;-63
2023/06/25 08:07:15;;;;;;;11.90;10.90;;;;;;;28.74;100.00;99895.88;105907;1259;60429;-64
2023/06/25 08:09:44;;;;;;;10.90;9.80;;;;;;;28.92;100.00;99892.41;105936;1253;60713;-63
2023/06/25 08:12:14;;;;;;;12.70;9.60;;;;;;;28.91;100.00;99891.91;105843;1259;73978;-64
2023/06/25 08:14:41;;;;;;;11.20;9.30;;;;;;;28.89;100.00;99889.87;105564;1258;65970;-63
2023/06/25 08:17:08;;;;;;;10.10;9.20;;;;;;;28.99;100.00;99889.12;105653;1257;71444;-64
2023/06/25 08:19:37;;;;;;;11.10;10.10;;;;;;;28.99;100.00;99883.59;105683;1259;60431;-63
2023/06/25 08:22:04;;;;;;;11.50;10.40;;;;;;;29.01;100.00;99879.94;105946;1259;60367;-64
2023/06/25 08:24:33;;;;;;;10.60;9.50;;;;;;;29.12;100.00;99877.82;105478;1259;75173;-63
2023/06/25 08:27:00;;;;;;;13.70;11.20;;;;;;;29.23;100.00;99877.41;105873;1259;67217;-62
2023/06/25 08:29:27;;;;;;;9.90;9.00;;;;;;;29.28;100.00;99878.02;105777;1255;72382;-65
2023/06/25 08:31:54;;;;;;;10.70;8.90;;;;;;;29.32;100.00;99874.73;105582;1266;60425;-62
2023/06/25 08:34:21;;;;;;;10.50;9.50;;;;;;;29.48;100.00;99867.44;105393;1256;60438;-62
2023/06/25 08:36:48;;;;;;;9.70;8.70;;;;;;;29.65;100.00;99864.02;105689;1259;72676;-62
2023/06/25 08:39:15;;;;;;;9.30;8.40;;;;;;;29.87;100.00;99865.02;105520;1257;66324;-63
2023/06/25 08:41:42;;;;;;;9.20;8.40;;;;;;;30.06;100.00;99862.94;105465;1263;71727;-63
2023/06/25 08:44:09;;;;;;;8.20;7.40;;;;;;;30.16;100.00;99863.06;105912;1259;60558;-63
2023/06/25 08:46:36;;;;;;;8.60;7.80;;;;;;;30.25;100.00;99864.27;105102;1260;60432;-62
2023/06/25 08:49:05;;;;;;;9.30;8.30;;;;;;;30.40;100.00;99864.66;107028;1255;72636;-62
2023/06/25 08:51:32;;;;;;;10.00;7.50;;;;;;;30.58;100.00;99863.85;105419;1260;59608;-61
2023/06/25 08:53:59;;;;;;;9.20;8.30;;;;;;;30.78;100.00;99865.60;105655;1258;72732;-64
2023/06/25 08:56:26;;;;;;;8.30;7.40;;;;;;;30.86;100.00;99864.54;105626;1254;61016;-62
2023/06/25 08:58:53;;;;;;;9.10;7.50;;;;;;;30.78;100.00;99864.95;105734;1258;60419;-62
2023/06/25 09:01:20;;;;;;;8.50;7.60;;;;;;;30.64;100.00;99865.93;105723;1253;72582;-62
2023/06/25 09:03:47;;;;;;;8.80;7.90;;;;;;;30.57;100.00;99863.63;105652;1260;65707;-62
2023/06/25 09:06:15;;;;;;;7.90;7.10;;;;;;;30.62;100.00;99858.86;105388;1259;71441;-64
2023/06/25 09:08:43;;;;;;;8.30;7.60;;;;;;;30.87;100.00;99857.73;105277;1260;60539;-62
2023/06/25 09:11:10;;;;;;;11.00;8.30;;;;;;;31.24;100.00;99853.38;105364;1254;60405;-61
2023/06/25 09:13:37;;;;;;;8.40;7.60;;;;;;;31.40;100.00;99852.80;105316;1254;64124;-62
2023/06/25 09:16:07;;;;;;;8.90;8.00;;;;;;;31.66;100.00;99848.34;105840;1260;65744;-65
2023/06/25 09:18:34;;;;;;;8.00;7.20;;;;;;;32.19;100.00;99844.99;105143;1259;215808;-63
2023/06/25 09:21:05;;;;;;;9.40;7.80;;;;;;;32.85;100.00;99837.42;105349;1254;60431;-62
2023/06/25 09:23:33;;;;;;;8.70;7.80;;;;;;;33.53;100.00;99836.02;105281;1267;60437;-62
2023/06/25 09:26:04;;;;;;;8.00;6.90;;;;;;;33.99;100.00;99834.47;106057;1258;65056;-64
2023/06/25 09:28:30;;;;;;;6.70;6.10;;;;;;;34.30;100.00;99833.02;105349;1263;66844;-63
2023/06/25 09:30:57;;;;;;;8.30;6.80;;;;;;;34.38;95.71;99833.37;105369;1259;63876;-65
2023/06/25 09:33:33;;;;;;;8.00;7.20;;;;;;;34.40;93.61;99829.92;105220;1260;60571;-62
2023/06/25 09:36:03;;;;;;;8.80;7.30;;;;;;;34.40;91.47;99828.84;105251;1253;60846;-63
2023/06/25 09:38:47;;;;;;;7.80;7.00;;;;;;;34.25;92.22;99830.06;105348;1260;63925;-63
2023/06/25 09:41:17;;;;;;;7.20;5.90;;;;;;;34.28;88.30;99828.73;105387;1260;60319;-64
2023/06/25 09:43:46;;;;;;;7.50;5.80;;;;;;;34.52;76.51;99832.74;105410;1257;63919;-63
2023/06/25 09:46:14;;;;;;;6.60;5.60;;;;;;;34.89;68.53;99832.20;105373;1260;60796;-60
2023/06/25 09:48:41;;;;;;;7.40;5.80;;;;;;;35.16;67.13;99832.42;105355;1257;60415;-62
2023/06/25 09:51:08;;;;;;;7.40;6.50;;;;;;;35.43;62.87;99831.52;105702;1260;65296;-61
2023/06/25 09:53:36;;;;;;;7.00;6.30;;;;;;;35.61;65.49;99828.85;105130;1260;60456;-62
2023/06/25 09:56:04;;;;;;;9.40;6.90;;;;;;;35.72;60.59;99828.86;106173;1258;64190;-62
2023/06/25 09:58:31;;;;;;;7.60;6.30;;;;;;;35.53;62.86;99820.80;105300;1255;60357;-63
2023/06/25 10:00:57;;;;;;;9.00;6.30;;;;;;;35.40;68.83;99816.77;105171;1259;60453;-62
2023/06/25 10:03:26;;;;;;;7.20;6.40;;;;;;;35.48;71.54;99815.13;105358;1257;65454;-61
2023/06/25 10:05:53;;;;;;;8.00;5.60;;;;;;;35.25;73.03;99815.16;105322;1254;60546;-61
2023/06/25 10:08:20;;;;;;;6.30;5.10;;;;;;;34.66;78.96;99818.59;105593;1260;64174;-63
2023/06/25 10:10:58;;;;;;;7.10;6.40;;;;;;;34.47;86.62;99817.94;105323;1258;60424;-62
2023/06/25 10:13:26;;;;;;;8.20;5.90;;;;;;;34.51;85.61;99820.07;105372;1254;60553;-61
2023/06/25 10:16:02;;;;;;;7.00;6.30;;;;;;;34.45;86.26;99825.80;105556;1257;64064;-64
2023/06/25 10:18:29;;;;;;;7.90;6.40;;;;;;;34.23;85.57;99824.61;105408;1257;59598;-62
2023/06/25 10:20:57;;;;;;;7.00;6.30;;;;;;;34.00;90.62;99824.77;105409;1254;64194;-60
2023/06/25 10:23:25;;;;;;;6.30;5.70;;;;;;;33.79;93.66;99827.58;105394;1258;60303;-60
2023/06/25 10:25:57;;;;;;;6.10;5.40;;;;;;;33.62;95.48;99826.63;105162;1257;60338;-63
2023/06/25 10:28:31;;;;;;;6.00;4.90;;;;;;;33.50;93.09;99832.42;105536;1254;73875;-63
2023/06/25 10:31:13;;;;;;;6.70;5.30;;;;;;;33.42;86.98;99834.05;105337;1257;60501;-61
2023/06/25 10:33:42;;;;;;;;;;;;;;;33.24;82.58;99832.95;105387;1254;63794;-61
2023/06/25 10:36:10;;;;;;;5.40;4.20;;;;;;;33.13;76.66;99834.67;105361;1256;60456;-63
2023/06/25 10:38:37;;;;;;;4.20;3.60;;;;;;;32.98;71.55;99836.66;105297;1259;60540;-64
2023/06/25 10:41:04;;;;;;;5.10;4.60;;;;;;;32.73;70.92;99844.80;105413;1254;64059;-60
2023/06/25 10:43:31;;;;;;;4.80;4.30;;;;;;;32.40;75.53;99847.20;105382;1254;67179;-65
2023/06/25 10:45:58;;;;;;;4.00;3.60;;;;;;;32.22;83.03;99844.47;105342;1258;64518;-62
2023/06/25 10:48:25;;;;;;;4.80;3.60;;;;;;;32.15;73.90;99844.11;105638;1254;60559;-63
2023/06/25 10:50:53;;;;;;;5.20;4.10;;;;;;;32.03;69.24;99837.73;105460;1257;59673;-62
2023/06/25 10:53:21;;;;;;;4.70;3.90;;;;;;;31.86;68.54;99835.95;105649;1258;63923;-63
2023/06/25 10:55:50;;;;;;;6.40;4.50;;;;;;;31.71;70.62;99832.50;105325;1254;60479;-63
2023/06/25 10:58:19;;;;;;;5.10;3.80;;;;;;;31.75;73.40;99829.94;105360;1254;62808;-64
2023/06/25 11:00:54;;;;;;;7.20;4.20;;;;;;;31.92;73.75;99827.89;105431;1257;60513;-64
2023/06/25 11:03:22;;;;;;;4.20;3.70;;;;;;;32.12;72.29;99828.61;105571;1254;60365;-65
2023/06/25 11:05:50;;;;;;;5.10;4.20;;;;;;;32.28;71.98;99820.91;105325;1254;65257;-63
2023/06/25 11:08:22;;;;;;;8.70;4.30;;;;;;;32.50;64.91;99814.89;105306;1259;60521;-65
2023/06/25 11:10:50;;;;;;;6.30;3.60;;;;;;;32.70;58.44;99807.53;105111;1260;62616;-65
2023/06/25 11:13:17;;;;;;;5.60;3.70;;;;;;;32.86;60.07;99803.20;105644;1254;60492;-64
2023/06/25 11:15:45;;;;;;;5.30;3.90;;;;;;;32.97;55.06;99799.12;105270;1255;60424;-65
2023/06/25 11:18:12;;;;;;;4.50;4.00;;;;;;;32.91;57.62;99801.34;105295;1257;64097;-64